Terminal Aerodrome Forecast
Issued by NWS Portland, OR

Home | Current Version | Previous Version | Text Only | Print | Product List | Glossary On
Versions: 1 2 3 4 5 6 7 8 9 10 11 12 13 14 15 16 17 18 19 20 21 22 23
506
FTUS46 KPQR 101724
TAFTTD
TAF
KTTD 101724Z 1018/1118 09010G20KT P6SM SCT090 BKN120
     FM102000 10015G25KT P6SM BKN040 OVC080
     FM110100 09007KT P6SM OVC050
     FM111600 09010KT P6SM -RA OVC050=

USA.gov is the U.S. government's official web portal to all federal, state and local government web resources and services.